< < Back
Terminal Aerodrome Forecast


Current Version              Previous Versions:   1  2  3  4  5  6  7  8  9  

Terminal Aerodrome Forecast

694
FTUS42 KFFC 292330
TAFATL
TAF
KATL 292330Z 3000/0106 23006KT P6SM BKN250
     FM300100 19003KT P6SM BKN250
     FM300900 15003KT P6SM BKN250
     FM301500 17006KT P6SM SCT035
     FM301800 19010KT P6SM BKN050 PROB30 3018/3024 4SM -TSRA BR
      BKN030CB=

Latest METAR

360
SAUS70 KWBC 300500 RRC
MTRATL
METAR KATL 300452Z 00000KT 10SM FEW070 BKN200 OVC250 23/12 A2999 RMK AO2
SLP143 T02280122 403110172


USA.gov is the U.S. government's official web portal to all federal, state and local government web resources and services.